Aérodrome :
LOGIN :

S'inscrire | Disclaimer

   EN    FR    IT 

 










Légende :    VFR   VFR Marginal   IFR   IFR Intensif   IFR Très Intensif
Visi : 
Plafond : 
>= 8 km
>= 3000ft
5 à 8 km
1000 à 3000 ft
1500m à 5 km
500 à 1000 ft
800 à 1500m
200 à 500 ft
< 800m
< 200 ft
Symboles :   Orages  Brouillard  Fortes neiges  Fortes précipitations  Vent > 20 kt
SIGMETs :   Divers  Orages  Givrage  Turbulence  Onde Orograph.  Cendres Volcan.






- Altitude de l'aérodrome : 74 ft
- Code IATA : LRH


LFBH - La Rochelle Ile de Ré

DERNIER METAR :
  • 100500Z AUTO 14005KT CAVOK 04/03 Q1029 NOSIG

METARs EXPIRÉS :
  • 100430Z AUTO 14005KT CAVOK 04/03 Q1029 NOSIG
  • 100400Z AUTO 14004KT 9000 NSC 04/02 Q1030 NOSIG
  • 100330Z AUTO 15003KT CAVOK 04/03 Q1030 NOSIG
  • 100300Z AUTO 10003KT CAVOK 05/03 Q1030 NOSIG
  • 100230Z AUTO VRB02KT CAVOK 05/03 Q1030 NOSIG

TAF TAF LFBH
Valide du 10 à 00h jusqu'au 11 à 00h UTC


092300Z 1000/1024 33005KT 9999 SCT030
BECMG 1002/1005 15010KT
TEMPO 1010/1020 17015G25KT
TEMPO 1013/1016 BKN015
BECMG 1020/1022 21015KT -RA OVC030
TEMPO 1022/1024 21015G25KT 4000 RA
ATIS : +33 5 46 00 13 92



MET'MAP, la Météo Aéronautique d'un coup d'oeil ! - Copyright ORBIFLY Décembre 2007 - Disclaimer

ORBIFLY MET'MAP TEAM :

Programmation & Développement : Alexandra Zaïnal
Sur une idée originale de : Baudouin d'Aumeries
Assistance à la programmation : Marc-Olivier Méhu
Soutien technique & logistique : Manuel Goepfert

Contact : metmap@orbifly.com




SOURCES & CREDITS :

   NOAA